createdAt,value
2023-02-16T00:01:58.872Z,5.85
2023-02-16T00:04:28.720Z,5.77
2023-02-16T00:06:55.984Z,5.71
2023-02-16T00:09:23.547Z,5.60
2023-02-16T00:12:11.158Z,5.62
2023-02-16T00:14:39.435Z,5.59
2023-02-16T00:17:06.848Z,5.52
2023-02-16T00:19:37.122Z,5.50
2023-02-16T00:22:05.455Z,5.43
2023-02-16T00:24:32.023Z,5.45
2023-02-16T00:26:59.845Z,5.34
2023-02-16T00:29:34.663Z,5.39
2023-02-16T00:32:02.968Z,5.36
2023-02-16T00:34:32.595Z,5.32
2023-02-16T00:37:01.671Z,5.30
2023-02-16T00:39:28.856Z,5.31
2023-02-16T00:41:58.948Z,5.28
2023-02-16T00:44:41.286Z,5.30
2023-02-16T00:47:27.745Z,5.31
2023-02-16T00:49:54.907Z,5.26
2023-02-16T00:52:31.063Z,5.23
2023-02-16T00:54:58.513Z,5.20
2023-02-16T00:57:27.109Z,5.21
2023-02-16T01:00:24.295Z,5.21
2023-02-16T01:02:53.206Z,5.18
2023-02-16T01:05:19.755Z,5.09
2023-02-16T01:08:05.101Z,5.15
2023-02-16T01:10:51.552Z,5.18
2023-02-16T01:13:18.323Z,5.12
2023-02-16T01:15:45.568Z,5.02
2023-02-16T01:18:15.194Z,5.02
2023-02-16T01:20:41.681Z,4.99
2023-02-16T01:23:08.162Z,5.01
2023-02-16T01:25:36.192Z,4.98
2023-02-16T01:28:03.019Z,4.93
2023-02-16T01:30:29.764Z,4.92
2023-02-16T01:32:56.469Z,4.86
2023-02-16T01:35:28.300Z,4.85
2023-02-16T01:37:55.025Z,4.86
2023-02-16T01:40:33.797Z,4.84
2023-02-16T01:43:06.253Z,4.83
2023-02-16T01:45:35.623Z,4.80
2023-02-16T01:48:11.945Z,4.76
2023-02-16T01:51:16.632Z,4.70
2023-02-16T01:53:45.337Z,4.70
2023-02-16T01:56:47.642Z,4.64
2023-02-16T01:59:29.225Z,4.63
2023-02-16T02:01:59.484Z,4.59
2023-02-16T02:04:54.526Z,4.53
2023-02-16T02:07:58.204Z,4.52
2023-02-16T02:11:02.391Z,4.42
2023-02-16T02:13:37.910Z,4.34
2023-02-16T02:16:05.667Z,4.30
2023-02-16T02:18:32.432Z,4.15
2023-02-16T02:21:27.372Z,4.27
2023-02-16T02:24:16.594Z,4.27
2023-02-16T02:27:07.732Z,4.23
2023-02-16T02:29:46.127Z,4.13
2023-02-16T02:32:30.651Z,4.03
2023-02-16T02:35:30.902Z,4.02
2023-02-16T02:38:08.405Z,3.99
2023-02-16T02:41:10.291Z,3.96
2023-02-16T02:43:50.096Z,3.81
2023-02-16T02:46:24.796Z,3.73
2023-02-16T02:48:51.506Z,3.78
2023-02-16T02:51:30.625Z,3.80
2023-02-16T02:54:18.152Z,3.86
2023-02-16T02:57:08.573Z,3.84
2023-02-16T02:59:55.939Z,3.91
2023-02-16T03:02:24.170Z,3.86
2023-02-16T03:04:53.731Z,3.88
2023-02-16T03:07:43.969Z,3.89
2023-02-16T03:10:29.111Z,3.93
2023-02-16T03:12:57.800Z,3.90
2023-02-16T03:15:25.876Z,3.94
2023-02-16T03:18:13.732Z,3.92
2023-02-16T03:21:01.408Z,3.80
2023-02-16T03:23:47.849Z,3.89
2023-02-16T03:26:34.084Z,3.83
2023-02-16T03:29:21.479Z,3.82
2023-02-16T03:31:50.130Z,3.86
2023-02-16T03:34:18.339Z,3.81
2023-02-16T03:36:48.930Z,3.84
2023-02-16T03:39:16.322Z,3.85
2023-02-16T03:41:49.397Z,3.91
2023-02-16T03:44:16.135Z,3.97
2023-02-16T03:46:42.719Z,4.10
2023-02-16T03:49:09.249Z,4.35
2023-02-16T03:51:35.797Z,4.42
2023-02-16T03:54:02.300Z,4.54
2023-02-16T03:56:28.887Z,4.79
2023-02-16T03:58:55.353Z,4.91
2023-02-16T04:01:21.980Z,5.03
2023-02-16T04:03:48.491Z,5.13
2023-02-16T04:06:15.324Z,5.22
2023-02-16T04:08:41.804Z,5.24
2023-02-16T04:11:26.715Z,5.26
2023-02-16T04:13:53.606Z,5.22
2023-02-16T04:16:20.136Z,5.19
2023-02-16T04:18:46.727Z,5.11
2023-02-16T04:21:13.247Z,5.15
2023-02-16T04:23:39.718Z,5.15
2023-02-16T04:26:06.192Z,5.10
2023-02-16T04:28:32.767Z,5.02
2023-02-16T04:30:59.307Z,4.98
2023-02-16T04:33:25.823Z,4.93
2023-02-16T04:35:52.308Z,4.92
2023-02-16T04:38:18.780Z,4.86
2023-02-16T04:40:45.330Z,4.78
2023-02-16T04:43:11.799Z,4.76
2023-02-16T04:45:38.281Z,4.72
2023-02-16T04:48:05.104Z,4.71
2023-02-16T04:50:31.874Z,4.66
2023-02-16T04:52:58.906Z,4.59
2023-02-16T04:55:25.521Z,4.56
2023-02-16T04:57:52.112Z,4.53
2023-02-16T05:00:19.161Z,4.49
2023-02-16T05:02:45.954Z,4.44
2023-02-16T05:05:12.421Z,4.41
2023-02-16T05:07:38.960Z,4.38
2023-02-16T05:10:06.162Z,4.37
2023-02-16T05:12:51.145Z,4.27
2023-02-16T05:15:17.646Z,4.31
2023-02-16T05:17:44.214Z,4.29
2023-02-16T05:20:11.823Z,4.26
2023-02-16T05:22:39.358Z,4.24
2023-02-16T05:25:07.355Z,4.23
2023-02-16T05:27:33.910Z,4.20
2023-02-16T05:30:00.503Z,4.14
2023-02-16T05:32:27.158Z,4.18
2023-02-16T05:34:53.650Z,4.17
2023-02-16T05:37:20.265Z,4.15
2023-02-16T05:39:46.944Z,4.12
2023-02-16T05:42:13.541Z,4.07
2023-02-16T05:44:40.116Z,4.08
2023-02-16T05:47:06.683Z,4.11
2023-02-16T05:49:33.130Z,4.11
2023-02-16T05:51:59.627Z,4.09
2023-02-16T05:54:27.838Z,4.10
2023-02-16T05:56:54.666Z,4.09
2023-02-16T05:59:21.189Z,4.08
2023-02-16T06:01:51.296Z,4.07
2023-02-16T06:04:18.341Z,4.08
2023-02-16T06:06:44.908Z,4.08
2023-02-16T06:09:11.824Z,4.09
2023-02-16T06:11:38.442Z,4.09
2023-02-16T06:14:06.034Z,4.08
2023-02-16T06:16:33.884Z,4.15
2023-02-16T06:19:01.481Z,4.16
2023-02-16T06:21:28.889Z,4.20
2023-02-16T06:23:56.002Z,4.24
2023-02-16T06:26:22.880Z,4.19
2023-02-16T06:28:49.613Z,4.21
2023-02-16T06:31:16.314Z,4.23
2023-02-16T06:33:43.395Z,4.24
2023-02-16T06:36:10.636Z,4.25
2023-02-16T06:38:37.291Z,4.28
2023-02-16T06:41:04.515Z,4.30
2023-02-16T06:43:31.198Z,4.32
2023-02-16T06:45:57.785Z,4.36
2023-02-16T06:48:24.475Z,4.38
2023-02-16T06:50:51.495Z,4.44
2023-02-16T06:53:18.313Z,4.49
2023-02-16T06:55:44.845Z,4.60
2023-02-16T06:58:11.687Z,4.65
2023-02-16T07:00:38.826Z,4.70
2023-02-16T07:03:05.512Z,4.73
2023-02-16T07:05:31.992Z,4.79
2023-02-16T07:07:58.511Z,4.84
2023-02-16T07:10:24.996Z,4.89
2023-02-16T07:12:51.467Z,5.01
2023-02-16T07:15:18.141Z,5.11
2023-02-16T07:17:44.659Z,5.28
2023-02-16T07:20:12.783Z,5.46
2023-02-16T07:22:39.543Z,5.57
2023-02-16T07:25:06.411Z,5.74
2023-02-16T07:27:32.908Z,5.86
2023-02-16T07:29:59.405Z,5.97
2023-02-16T07:32:26.060Z,6.01
2023-02-16T07:34:52.571Z,6.10
2023-02-16T07:37:19.547Z,6.23
2023-02-16T07:39:46.019Z,6.38
2023-02-16T07:42:12.479Z,6.42
2023-02-16T07:44:38.948Z,6.53
2023-02-16T07:47:05.489Z,6.62
2023-02-16T07:49:31.965Z,6.69
2023-02-16T07:51:58.461Z,6.77
2023-02-16T07:54:24.966Z,6.84
2023-02-16T07:56:51.474Z,6.87
2023-02-16T07:59:17.976Z,7.05
2023-02-16T08:01:44.453Z,7.13
2023-02-16T08:04:10.946Z,7.15
2023-02-16T08:06:37.433Z,7.25
2023-02-16T08:09:04.466Z,7.31
2023-02-16T08:11:31.024Z,7.37
2023-02-16T08:14:00.138Z,7.54
2023-02-16T08:16:28.581Z,7.67
2023-02-16T08:18:57.256Z,7.73
2023-02-16T08:21:29.909Z,7.70
2023-02-16T08:24:05.235Z,7.87
2023-02-16T08:26:39.584Z,7.92
2023-02-16T08:29:10.136Z,8.00
2023-02-16T08:31:38.385Z,8.11
2023-02-16T08:34:05.985Z,8.17
2023-02-16T08:36:35.338Z,8.25
2023-02-16T08:39:13.662Z,8.30
2023-02-16T08:41:40.888Z,8.39
2023-02-16T08:44:09.113Z,8.43
2023-02-16T08:46:39.175Z,8.43
2023-02-16T08:49:07.423Z,8.55
2023-02-16T08:51:36.244Z,8.66
2023-02-16T08:54:05.980Z,8.74
2023-02-16T08:56:35.416Z,8.79
2023-02-16T08:59:02.089Z,8.91
2023-02-16T09:01:28.816Z,8.96
2023-02-16T09:03:55.634Z,9.07
2023-02-16T09:06:23.065Z,9.08
2023-02-16T09:08:55.085Z,9.16
2023-02-16T09:11:23.167Z,9.18
2023-02-16T09:13:50.507Z,9.26
2023-02-16T09:16:20.179Z,9.35
2023-02-16T09:18:47.665Z,9.51
2023-02-16T09:21:16.694Z,9.58
2023-02-16T09:23:48.470Z,9.75
2023-02-16T09:26:16.699Z,9.90
2023-02-16T09:28:44.795Z,10.08
2023-02-16T09:31:11.634Z,10.19
2023-02-16T09:33:40.307Z,10.28
2023-02-16T09:36:09.489Z,10.31
2023-02-16T09:38:36.925Z,10.34
2023-02-16T09:41:27.844Z,10.46
2023-02-16T09:43:54.222Z,10.51
2023-02-16T09:46:23.223Z,10.54
2023-02-16T09:48:50.982Z,10.66
2023-02-16T09:51:33.817Z,10.79
2023-02-16T09:54:16.875Z,10.87
2023-02-16T09:57:08.130Z,10.78
2023-02-16T09:59:48.270Z,10.89
2023-02-16T10:02:39.886Z,10.86
2023-02-16T10:05:30.171Z,10.88
2023-02-16T10:08:00.158Z,10.82
2023-02-16T10:10:35.653Z,10.80
2023-02-16T10:13:09.336Z,10.88
2023-02-16T10:15:37.873Z,10.79
2023-02-16T10:18:29.909Z,10.79
2023-02-16T10:21:00.907Z,10.87
2023-02-16T10:23:42.701Z,10.90
2023-02-16T10:26:53.290Z,10.76
2023-02-16T10:29:23.325Z,10.64
2023-02-16T10:31:56.645Z,10.80
2023-02-16T10:34:29.176Z,10.74
2023-02-16T10:37:17.398Z,10.63
2023-02-16T10:39:52.913Z,10.65
2023-02-16T10:42:47.486Z,10.61
2023-02-16T10:45:14.059Z,10.50
2023-02-16T10:47:43.531Z,10.59
2023-02-16T10:50:27.571Z,10.65
2023-02-16T10:53:01.743Z,10.49
2023-02-16T10:55:28.361Z,10.66
2023-02-16T10:57:58.869Z,10.82
2023-02-16T11:00:54.584Z,10.71
2023-02-16T11:03:29.103Z,10.82
2023-02-16T11:05:56.000Z,10.73
2023-02-16T11:08:24.167Z,10.78
2023-02-16T11:10:53.000Z,10.84
2023-02-16T11:13:33.965Z,11.04
2023-02-16T11:16:06.983Z,11.06
2023-02-16T11:18:39.067Z,11.15
2023-02-16T11:21:08.234Z,11.16
2023-02-16T11:23:35.998Z,11.43
2023-02-16T11:26:14.658Z,11.62
2023-02-16T11:28:47.835Z,11.67
2023-02-16T11:31:36.357Z,11.42
2023-02-16T11:34:28.755Z,11.51
2023-02-16T11:37:27.744Z,11.46
2023-02-16T11:40:28.924Z,11.50
2023-02-16T11:42:58.664Z,11.49
2023-02-16T11:45:31.623Z,11.24
2023-02-16T11:48:03.269Z,11.30
2023-02-16T11:50:35.569Z,11.06
2023-02-16T11:53:11.380Z,11.15
2023-02-16T11:55:44.396Z,10.97
2023-02-16T11:58:15.409Z,10.78
2023-02-16T12:00:58.469Z,10.82
2023-02-16T12:03:47.682Z,10.75
2023-02-16T12:06:39.045Z,10.62
2023-02-16T12:09:31.168Z,10.58
2023-02-16T12:12:14.751Z,10.44
2023-02-16T12:15:03.300Z,10.48
2023-02-16T12:17:40.027Z,10.39
2023-02-16T12:20:12.549Z,10.41
2023-02-16T12:22:51.081Z,10.40
2023-02-16T12:25:30.126Z,10.37
2023-02-16T12:28:09.628Z,10.34
2023-02-16T12:30:59.985Z,10.37
2023-02-16T12:33:47.966Z,10.32
2023-02-16T12:36:47.933Z,10.39
2023-02-16T12:39:43.303Z,10.42
2023-02-16T12:42:32.285Z,10.38
2023-02-16T12:45:03.480Z,10.48
2023-02-16T12:47:35.018Z,10.59
2023-02-16T12:50:04.761Z,10.61
2023-02-16T12:52:37.595Z,10.63
2023-02-16T12:55:41.587Z,10.77
2023-02-16T12:58:08.025Z,10.77
2023-02-16T13:01:00.069Z,10.73
2023-02-16T13:03:42.211Z,10.85
2023-02-16T13:06:21.578Z,10.86
2023-02-16T13:09:26.279Z,10.78
2023-02-16T13:12:17.214Z,10.86
2023-02-16T13:14:48.966Z,10.84
2023-02-16T13:17:21.162Z,10.80
2023-02-16T13:19:47.817Z,10.90
2023-02-16T13:22:41.768Z,10.77
2023-02-16T13:25:22.088Z,10.95
2023-02-16T13:28:17.731Z,10.89
2023-02-16T13:31:12.414Z,10.94
2023-02-16T13:33:48.617Z,10.91
2023-02-16T13:36:21.735Z,11.00
2023-02-16T13:39:10.247Z,10.96
2023-02-16T13:42:15.373Z,11.04
2023-02-16T13:44:52.275Z,11.05
2023-02-16T13:47:26.779Z,11.01
2023-02-16T13:50:05.541Z,11.06
2023-02-16T13:52:36.097Z,11.06
2023-02-16T13:55:05.952Z,11.06
2023-02-16T13:57:50.822Z,11.01
2023-02-16T14:00:29.018Z,11.02
2023-02-16T14:03:03.331Z,11.05
2023-02-16T14:05:34.180Z,11.00
2023-02-16T14:08:22.735Z,11.03
2023-02-16T14:10:55.385Z,10.92
2023-02-16T14:13:34.389Z,10.89
2023-02-16T14:16:20.774Z,10.80
2023-02-16T14:18:56.905Z,10.76
2023-02-16T14:21:35.476Z,10.70
2023-02-16T14:24:03.440Z,10.59
2023-02-16T14:26:31.961Z,10.59
2023-02-16T14:29:16.033Z,10.52
2023-02-16T14:31:47.717Z,10.52
2023-02-16T14:34:36.568Z,10.51
2023-02-16T14:37:15.037Z,10.46
2023-02-16T14:40:04.068Z,10.40
2023-02-16T14:42:34.801Z,10.43
2023-02-16T14:45:35.908Z,10.53
2023-02-16T14:48:34.276Z,10.62
2023-02-16T14:51:22.181Z,10.91
2023-02-16T14:54:07.379Z,11.43
2023-02-16T14:56:36.943Z,11.57
2023-02-16T14:59:13.330Z,11.55
2023-02-16T15:01:44.993Z,11.38
2023-02-16T15:04:11.830Z,11.28
2023-02-16T15:06:44.753Z,11.24
2023-02-16T15:09:23.907Z,11.33
2023-02-16T15:12:12.805Z,11.30
2023-02-16T15:14:48.033Z,11.24
2023-02-16T15:17:39.366Z,11.14
2023-02-16T15:20:29.805Z,11.22
2023-02-16T15:22:58.959Z,11.32
2023-02-16T15:25:29.499Z,11.56
2023-02-16T15:28:00.237Z,11.70
2023-02-16T15:30:39.228Z,11.79
2023-02-16T15:33:14.169Z,11.90
2023-02-16T15:35:43.504Z,11.96
2023-02-16T15:38:12.861Z,11.97
2023-02-16T15:40:40.020Z,12.03
2023-02-16T15:43:19.900Z,12.04
2023-02-16T15:45:52.645Z,12.02
2023-02-16T15:48:32.413Z,12.06
2023-02-16T15:51:20.813Z,12.07
2023-02-16T15:53:51.701Z,12.17
2023-02-16T15:56:44.861Z,12.06
2023-02-16T15:59:41.014Z,12.08
2023-02-16T16:02:13.353Z,12.12
2023-02-16T16:04:46.977Z,12.03
2023-02-16T16:07:17.381Z,12.02
2023-02-16T16:09:45.756Z,11.99
2023-02-16T16:12:16.297Z,12.04
2023-02-16T16:14:49.604Z,11.91
2023-02-16T16:17:20.783Z,11.92
2023-02-16T16:19:47.368Z,11.91
2023-02-16T16:22:31.823Z,11.79
2023-02-16T16:24:59.073Z,11.77
2023-02-16T16:27:36.581Z,11.80
2023-02-16T16:30:26.096Z,11.76
2023-02-16T16:33:07.735Z,11.74
2023-02-16T16:35:37.219Z,11.70
2023-02-16T16:38:05.638Z,11.65
2023-02-16T16:40:37.566Z,11.70
2023-02-16T16:43:06.883Z,11.65
2023-02-16T16:45:36.436Z,11.68
2023-02-16T16:48:11.233Z,11.72
2023-02-16T16:50:39.870Z,11.71
2023-02-16T16:53:31.680Z,11.74
2023-02-16T16:55:59.216Z,11.75
2023-02-16T16:58:27.104Z,11.79
2023-02-16T17:00:53.587Z,11.80
2023-02-16T17:03:20.588Z,11.78
2023-02-16T17:05:47.429Z,11.83
2023-02-16T17:08:13.914Z,11.78
2023-02-16T17:10:41.571Z,11.80
2023-02-16T17:13:15.020Z,11.80
2023-02-16T17:16:04.577Z,11.87
2023-02-16T17:18:31.259Z,11.82
2023-02-16T17:20:58.227Z,11.86
2023-02-16T17:23:24.749Z,11.84
2023-02-16T17:25:51.562Z,11.92
2023-02-16T17:28:21.481Z,11.90
2023-02-16T17:30:48.284Z,11.89
2023-02-16T17:33:14.850Z,11.97
2023-02-16T17:35:43.555Z,11.95
2023-02-16T17:38:13.994Z,11.98
2023-02-16T17:40:41.350Z,11.97
2023-02-16T17:43:13.083Z,12.00
2023-02-16T17:45:39.687Z,12.00
2023-02-16T17:48:06.280Z,12.04
2023-02-16T17:50:33.028Z,12.06
2023-02-16T17:52:59.914Z,12.04
2023-02-16T17:55:26.439Z,12.14
2023-02-16T17:57:53.015Z,12.16
2023-02-16T18:00:20.728Z,12.28
2023-02-16T18:02:47.518Z,12.26
2023-02-16T18:05:14.122Z,12.31
2023-02-16T18:07:40.570Z,12.37
2023-02-16T18:10:11.335Z,12.37
2023-02-16T18:12:37.802Z,12.36
2023-02-16T18:15:04.441Z,12.36
2023-02-16T18:17:30.894Z,12.36
2023-02-16T18:19:57.336Z,12.35
2023-02-16T18:22:23.805Z,12.35
2023-02-16T18:24:50.880Z,12.38
2023-02-16T18:27:18.079Z,12.37
2023-02-16T18:29:44.522Z,12.37
2023-02-16T18:32:11.024Z,12.29
2023-02-16T18:34:37.593Z,12.25
2023-02-16T18:37:04.182Z,12.21
2023-02-16T18:39:30.662Z,12.10
2023-02-16T18:41:57.121Z,12.02
2023-02-16T18:44:23.564Z,11.88
2023-02-16T18:46:50.078Z,11.78
2023-02-16T18:49:16.527Z,11.69
2023-02-16T18:51:42.990Z,11.68
2023-02-16T18:54:09.430Z,11.71
2023-02-16T18:56:37.359Z,11.60
2023-02-16T18:59:04.271Z,11.57
2023-02-16T19:01:32.418Z,11.63
2023-02-16T19:04:00.481Z,11.64
2023-02-16T19:06:27.085Z,11.71
2023-02-16T19:08:53.705Z,11.66
2023-02-16T19:11:21.161Z,11.67
2023-02-16T19:13:48.203Z,11.72
2023-02-16T19:16:15.808Z,11.68
2023-02-16T19:18:42.399Z,11.67
2023-02-16T19:21:11.264Z,11.69
2023-02-16T19:23:38.003Z,11.75
2023-02-16T19:26:11.185Z,11.73
2023-02-16T19:28:39.122Z,11.76
2023-02-16T19:31:08.801Z,11.78
2023-02-16T19:33:35.616Z,11.88
2023-02-16T19:36:07.438Z,11.68
2023-02-16T19:38:34.099Z,11.61
2023-02-16T19:41:00.813Z,11.44
2023-02-16T19:43:27.288Z,11.33
2023-02-16T19:45:54.353Z,11.06
2023-02-16T19:48:20.898Z,11.08
2023-02-16T19:50:47.429Z,10.80
2023-02-16T19:53:16.989Z,10.82
2023-02-16T19:55:43.670Z,10.70
2023-02-16T19:58:10.221Z,10.73
2023-02-16T20:00:37.886Z,10.57
2023-02-16T20:03:04.617Z,10.63
2023-02-16T20:05:31.067Z,10.65
2023-02-16T20:07:57.677Z,10.60
2023-02-16T20:10:24.297Z,10.56
2023-02-16T20:12:50.752Z,10.49
2023-02-16T20:15:17.956Z,10.68
2023-02-16T20:17:44.422Z,10.66
2023-02-16T20:20:11.320Z,10.71
2023-02-16T20:22:38.025Z,10.63
2023-02-16T20:25:04.892Z,10.69
2023-02-16T20:27:31.366Z,10.62
2023-02-16T20:30:00.691Z,10.67
2023-02-16T20:32:28.416Z,10.66
2023-02-16T20:34:54.924Z,10.65
2023-02-16T20:37:21.797Z,10.62
2023-02-16T20:39:48.354Z,10.71
2023-02-16T20:42:14.908Z,10.67
2023-02-16T20:44:41.416Z,10.70
2023-02-16T20:47:10.140Z,10.70
2023-02-16T20:49:36.691Z,10.78
2023-02-16T20:52:03.374Z,10.77
2023-02-16T20:54:29.900Z,10.76
2023-02-16T20:56:56.410Z,10.80
2023-02-16T20:59:22.920Z,10.71
2023-02-16T21:01:52.188Z,10.71
2023-02-16T21:04:19.390Z,10.72
2023-02-16T21:06:46.512Z,10.69
2023-02-16T21:09:14.271Z,10.60
2023-02-16T21:11:46.636Z,10.63
2023-02-16T21:14:13.432Z,10.54
2023-02-16T21:16:40.999Z,10.41
2023-02-16T21:19:17.504Z,10.43
2023-02-16T21:21:49.344Z,10.39
2023-02-16T21:24:15.817Z,10.29
2023-02-16T21:26:42.395Z,10.30
2023-02-16T21:29:08.891Z,10.21
2023-02-16T21:31:35.493Z,10.20
2023-02-16T21:34:01.976Z,10.15
2023-02-16T21:36:28.549Z,10.15
2023-02-16T21:38:55.216Z,10.14
2023-02-16T21:41:25.310Z,10.00
2023-02-16T21:44:02.522Z,9.99
2023-02-16T21:46:31.774Z,10.07
2023-02-16T21:49:01.746Z,9.99
2023-02-16T21:51:33.453Z,9.97
2023-02-16T21:54:00.713Z,9.97
2023-02-16T21:56:35.295Z,10.00
2023-02-16T21:59:02.711Z,10.00
2023-02-16T22:01:31.962Z,10.08
2023-02-16T22:04:00.508Z,10.02
2023-02-16T22:06:32.265Z,10.00
2023-02-16T22:09:00.058Z,10.05
2023-02-16T22:11:26.659Z,10.08
2023-02-16T22:13:58.578Z,10.08
2023-02-16T22:16:26.504Z,10.13
2023-02-16T22:19:07.198Z,10.07
2023-02-16T22:21:36.909Z,10.12
2023-02-16T22:24:04.405Z,10.09
2023-02-16T22:26:33.572Z,10.14
2023-02-16T22:29:03.009Z,10.18
2023-02-16T22:31:29.897Z,10.13
2023-02-16T22:34:01.656Z,10.23
2023-02-16T22:36:28.988Z,10.18
2023-02-16T22:38:55.493Z,10.17
2023-02-16T22:41:22.963Z,10.19
2023-02-16T22:43:54.408Z,10.21
2023-02-16T22:46:22.053Z,10.26
2023-02-16T22:48:48.582Z,10.29
2023-02-16T22:51:16.463Z,10.35
2023-02-16T22:53:43.599Z,10.32
2023-02-16T22:56:13.615Z,10.45
2023-02-16T22:58:40.292Z,10.44
2023-02-16T23:01:15.587Z,10.46
2023-02-16T23:03:42.256Z,10.50
2023-02-16T23:06:13.573Z,10.44
2023-02-16T23:08:40.900Z,10.63
2023-02-16T23:11:07.370Z,10.54
2023-02-16T23:13:34.698Z,10.59
2023-02-16T23:16:11.635Z,10.61
2023-02-16T23:18:38.549Z,10.63
2023-02-16T23:21:29.808Z,10.64
2023-02-16T23:23:57.174Z,10.70
2023-02-16T23:26:25.623Z,10.72
2023-02-16T23:28:54.250Z,10.76
2023-02-16T23:31:21.996Z,10.76
2023-02-16T23:33:49.098Z,10.84
2023-02-16T23:36:15.683Z,10.85
2023-02-16T23:38:42.158Z,10.84
2023-02-16T23:41:16.096Z,10.79
2023-02-16T23:43:43.050Z,10.85
2023-02-16T23:46:10.433Z,10.89
2023-02-16T23:48:38.417Z,10.91
2023-02-16T23:51:05.237Z,10.86
2023-02-16T23:53:31.739Z,10.87
2023-02-16T23:56:03.227Z,10.92
2023-02-16T23:58:32.797Z,10.86
